Time;durP1;ratioP1;P1;durP2;ratioP2;P2;SDS_P1;SDS_P2;PMS_P1;PMS_P2;Temp;Humidity;BMP_temperature;BMP_pressure;BME280_temperature;BME280_humidity;BME280_pressure;Samples;Min_cycle;Max_cycle;Signal;HPM_P1;HPM_P2
2022/05/31 00:02:02;;;;;;;4.28;2.67;;;;;;;;;;4973473;28;95173;-73
2022/05/31 00:04:30;;;;;;;4.60;2.90;;;;;;;;;;4972121;28;96762;-72
2022/05/31 00:06:56;;;;;;;3.92;2.45;;;;;;;;;;4971900;28;97341;-72
2022/05/31 00:09:22;;;;;;;4.45;2.97;;;;;;;;;;4973044;28;95410;-71
2022/05/31 00:11:48;;;;;;;4.18;2.65;;;;;;;;;;4971821;28;96342;-72
2022/05/31 00:14:15;;;;;;;4.80;2.75;;;;;;;;;;4973153;28;95982;-70
2022/05/31 00:16:42;;;;;;;6.00;2.80;;;;;;;;;;4971194;28;96723;-72
2022/05/31 00:19:08;;;;;;;4.30;2.63;;;;;;;;;;4972010;28;97572;-72
2022/05/31 00:21:43;;;;;;;4.30;2.72;;;;;;;;;;4970164;28;95800;-72
2022/05/31 00:24:12;;;;;;;5.85;3.35;;;;;;;;;;4970511;28;97130;-70
2022/05/31 00:26:39;;;;;;;5.97;3.47;;;;;;;;;;4972051;28;97520;-71
2022/05/31 00:29:06;;;;;;;5.22;3.42;;;;;;;;;;4975417;28;95536;-71
2022/05/31 00:31:33;;;;;;;5.00;3.03;;;;;;;;;;4971133;28;97374;-72
2022/05/31 00:33:59;;;;;;;7.82;3.17;;;;;;;;;;4972093;28;95104;-70
2022/05/31 00:36:25;;;;;;;4.93;3.20;;;;;;;;;;4969636;28;96081;-70
2022/05/31 00:38:53;;;;;;;4.63;3.17;;;;;;;;;;4971137;28;97638;-70
2022/05/31 00:41:26;;;;;;;5.03;3.05;;;;;;;;;;4972196;28;96456;-71
2022/05/31 00:43:57;;;;;;;3.90;2.88;;;;;;;;;;4972588;28;96429;-71
2022/05/31 00:46:24;;;;;;;4.03;2.57;;;;;;;;;;4971822;28;97348;-71
2022/05/31 00:48:57;;;;;;;4.13;2.50;;;;;;;;;;4972536;28;95394;-71
2022/05/31 00:51:37;;;;;;;3.72;2.13;;;;;;;;;;4973589;28;98351;-70
2022/05/31 00:54:06;;;;;;;3.40;2.28;;;;;;;;;;4971360;28;96951;-70
2022/05/31 00:56:32;;;;;;;4.47;2.72;;;;;;;;;;4974148;28;99269;-73
2022/05/31 00:59:01;;;;;;;3.38;2.20;;;;;;;;;;4974983;28;97621;-70
2022/05/31 01:01:29;;;;;;;2.83;2.00;;;;;;;;;;4974743;28;95381;-72
2022/05/31 01:03:58;;;;;;;3.97;2.35;;;;;;;;;;4974661;28;96714;-70
2022/05/31 01:06:24;;;;;;;3.25;2.35;;;;;;;;;;4974385;28;97445;-71
2022/05/31 01:08:53;;;;;;;4.10;2.40;;;;;;;;;;4973817;28;95358;-73
2022/05/31 01:11:21;;;;;;;3.83;2.20;;;;;;;;;;4974599;28;95750;-72
2022/05/31 01:13:47;;;;;;;3.20;2.05;;;;;;;;;;4977615;28;97164;-72
2022/05/31 01:16:14;;;;;;;3.88;2.30;;;;;;;;;;4974170;28;96959;-71
2022/05/31 01:18:41;;;;;;;4.03;2.30;;;;;;;;;;4974444;28;97406;-71
2022/05/31 01:21:08;;;;;;;8.80;2.80;;;;;;;;;;4979704;28;95982;-69
2022/05/31 01:23:42;;;;;;;3.72;2.33;;;;;;;;;;4977537;28;96808;-71
2022/05/31 01:26:28;;;;;;;4.15;2.40;;;;;;;;;;4975131;28;97417;-71
2022/05/31 01:29:03;;;;;;;3.58;2.30;;;;;;;;;;4974520;28;95356;-72
2022/05/31 01:31:48;;;;;;;4.47;2.72;;;;;;;;;;4974684;28;96884;-71
2022/05/31 01:34:18;;;;;;;3.30;1.92;;;;;;;;;;4972909;28;97403;-71
2022/05/31 01:36:46;;;;;;;3.97;2.38;;;;;;;;;;4978818;28;95882;-70
2022/05/31 01:39:29;;;;;;;8.18;2.80;;;;;;;;;;4974635;28;97335;-70
2022/05/31 01:42:05;;;;;;;4.03;2.28;;;;;;;;;;4973113;28;95401;-72
2022/05/31 01:44:34;;;;;;;3.92;2.53;;;;;;;;;;4974047;28;95768;-72
2022/05/31 01:47:01;;;;;;;3.33;2.08;;;;;;;;;;4973600;28;97301;-72
2022/05/31 01:49:32;;;;;;;5.15;2.72;;;;;;;;;;4973814;28;95084;-73
2022/05/31 01:52:00;;;;;;;3.80;2.25;;;;;;;;;;4971620;28;96771;-72
2022/05/31 01:54:26;;;;;;;3.25;2.25;;;;;;;;;;4974407;28;97311;-73
2022/05/31 01:56:57;;;;;;;3.90;2.25;;;;;;;;;;4974142;28;95392;-71
2022/05/31 01:59:24;;;;;;;3.58;2.20;;;;;;;;;;4977146;28;96792;-73
2022/05/31 02:01:52;;;;;;;3.78;2.20;;;;;;;;;;4974669;28;95616;-73
2022/05/31 02:04:18;;;;;;;4.10;2.47;;;;;;;;;;4972918;28;96845;-72
2022/05/31 02:06:45;;;;;;;4.82;2.67;;;;;;;;;;4973533;28;97362;-72
2022/05/31 02:09:12;;;;;;;3.85;2.42;;;;;;;;;;4971808;28;95402;-70
2022/05/31 02:11:39;;;;;;;4.45;2.80;;;;;;;;;;4973678;28;96831;-71
2022/05/31 02:14:08;;;;;;;4.57;2.67;;;;;;;;;;4973934;28;97109;-73
2022/05/31 02:16:34;;;;;;;4.03;2.42;;;;;;;;;;4973441;28;95148;-74
2022/05/31 02:19:23;;;;;;;5.68;2.90;;;;;;;;;;4972263;28;96760;-71
2022/05/31 02:21:50;;;;;;;3.95;2.67;;;;;;;;;;4974436;28;97381;-72
2022/05/31 02:24:17;;;;;;;4.75;2.88;;;;;;;;;;4973690;28;96799;-72
2022/05/31 02:26:43;;;;;;;4.28;2.45;;;;;;;;;;4973282;28;97438;-73
2022/05/31 02:29:10;;;;;;;3.88;2.58;;;;;;;;;;4972687;28;95350;-71
2022/05/31 02:31:37;;;;;;;4.75;2.65;;;;;;;;;;4972818;28;96553;-73
2022/05/31 02:34:04;;;;;;;4.53;3.03;;;;;;;;;;4973714;28;97355;-71
2022/05/31 02:36:30;;;;;;;3.83;2.50;;;;;;;;;;4973559;28;95057;-73
2022/05/31 02:38:57;;;;;;;6.05;2.97;;;;;;;;;;4973535;28;95825;-71
2022/05/31 02:41:26;;;;;;;4.78;2.92;;;;;;;;;;4975805;28;97262;-71
2022/05/31 02:43:52;;;;;;;5.28;3.13;;;;;;;;;;4974398;28;96962;-71
2022/05/31 02:46:19;;;;;;;3.80;2.30;;;;;;;;;;4969471;28;97345;-71
2022/05/31 02:48:46;;;;;;;5.30;2.80;;;;;;;;;;4973574;28;95359;-72
2022/05/31 02:51:12;;;;;;;4.15;2.63;;;;;;;;;;4973673;28;96762;-70
2022/05/31 02:53:38;;;;;;;5.75;3.17;;;;;;;;;;4973070;28;97454;-70
2022/05/31 02:56:05;;;;;;;4.88;3.03;;;;;;;;;;4973824;28;96655;-72
2022/05/31 02:58:31;;;;;;;5.78;3.00;;;;;;;;;;4971990;28;96875;-72
2022/05/31 03:00:57;;;;;;;4.97;2.83;;;;;;;;;;4973116;28;96957;-70
2022/05/31 03:03:24;;;;;;;4.65;2.90;;;;;;;;;;4975576;28;95250;-71
2022/05/31 03:05:51;;;;;;;4.78;2.70;;;;;;;;;;4970490;28;97374;-72
2022/05/31 03:08:18;;;;;;;4.13;2.75;;;;;;;;;;4971918;28;95657;-71
2022/05/31 03:10:50;;;;;;;3.92;2.42;;;;;;;;;;4972972;28;97039;-71
2022/05/31 03:13:19;;;;;;;3.70;2.33;;;;;;;;;;4971973;28;97361;-69
2022/05/31 03:15:46;;;;;;;7.28;3.08;;;;;;;;;;4972732;28;95956;-72
2022/05/31 03:18:14;;;;;;;4.28;2.80;;;;;;;;;;4972774;28;97186;-72
2022/05/31 03:20:51;;;;;;;4.38;2.65;;;;;;;;;;4972412;28;97578;-73
2022/05/31 03:23:20;;;;;;;5.45;2.60;;;;;;;;;;4972088;28;95334;-71
2022/05/31 03:25:48;;;;;;;5.07;2.95;;;;;;;;;;4975930;28;96852;-71
2022/05/31 03:28:14;;;;;;;3.70;2.45;;;;;;;;;;4972025;28;95414;-71
2022/05/31 03:30:41;;;;;;;3.92;2.50;;;;;;;;;;4973001;28;96869;-71
2022/05/31 03:33:09;;;;;;;4.15;2.80;;;;;;;;;;4971240;28;97156;-73
2022/05/31 03:35:36;;;;;;;4.30;2.72;;;;;;;;;;4953206;28;95687;-73
2022/05/31 03:38:02;;;;;;;3.97;2.75;;;;;;;;;;4971122;28;96220;-70
2022/05/31 03:43:14;;;;;;;5.28;2.42;;;;;;;;;;4972970;28;95726;-73
2022/05/31 03:45:41;;;;;;;4.05;2.55;;;;;;;;;;4972744;28;96858;-71
2022/05/31 03:48:09;;;;;;;5.30;2.90;;;;;;;;;;4974183;28;97468;-72
2022/05/31 19:23:09;;;;;;;6.10;3.63;;;;;;;;;;5028199;28;95289;-71
2022/05/31 19:25:35;;;;;;;8.30;4.45;;;;;;;;;;5025561;28;97367;-71
2022/05/31 19:28:02;;;;;;;7.90;5.05;;;;;;;;;;5027580;28;95372;-73
2022/05/31 19:30:31;;;;;;;7.30;5.20;;;;;;;;;;5026947;28;96674;-71
2022/05/31 19:33:00;;;;;;;7.28;5.00;;;;;;;;;;5028620;28;97333;-72
2022/05/31 19:35:35;;;;;;;10.50;5.15;;;;;;;;;;5027676;28;95498;-71
2022/05/31 19:38:04;;;;;;;10.32;5.63;;;;;;;;;;5019817;28;96682;-75
2022/05/31 19:40:30;;;;;;;8.57;5.18;;;;;;;;;;5015696;28;97324;-73
2022/05/31 19:42:58;;;;;;;8.02;5.13;;;;;;;;;;5031350;28;95794;-73
2022/05/31 19:45:24;;;;;;;8.95;5.60;;;;;;;;;;5020012;27;96118;-73
2022/05/31 19:47:51;;;;;;;7.85;5.60;;;;;;;;;;5024829;28;95349;-74
2022/05/31 19:50:18;;;;;;;10.32;5.32;;;;;;;;;;5027407;27;97128;-72
2022/05/31 19:52:46;;;;;;;9.23;5.55;;;;;;;;;;5028101;28;97305;-73
2022/05/31 19:55:14;;;;;;;9.25;6.03;;;;;;;;;;5027627;28;95458;-73
2022/05/31 19:57:41;;;;;;;11.52;6.70;;;;;;;;;;5019980;28;99091;-73
2022/05/31 20:00:10;;;;;;;11.48;5.47;;;;;;;;;;5010426;27;96026;-72
2022/05/31 20:02:36;;;;;;;10.35;6.32;;;;;;;;;;5026626;28;95340;-74
2022/05/31 20:05:03;;;;;;;7.53;4.70;;;;;;;;;;5030128;28;96834;-75
2022/05/31 20:07:29;;;;;;;8.95;5.68;;;;;;;;;;5027927;27;95580;-75
2022/05/31 20:10:05;;;;;;;10.60;6.53;;;;;;;;;;5025801;28;96839;-74
2022/05/31 20:12:31;;;;;;;8.10;5.60;;;;;;;;;;5027696;28;97359;-75
2022/05/31 20:14:58;;;;;;;8.48;5.55;;;;;;;;;;5028618;28;95228;-74
2022/05/31 20:17:24;;;;;;;9.85;5.93;;;;;;;;;;5022886;27;97135;-73
2022/05/31 20:19:52;;;;;;;8.07;5.65;;;;;;;;;;5027210;28;97369;-72
2022/05/31 20:22:23;;;;;;;8.05;5.30;;;;;;;;;;5027680;28;96419;-71
2022/05/31 20:24:50;;;;;;;8.05;5.18;;;;;;;;;;5027100;28;96741;-74
2022/05/31 20:27:17;;;;;;;7.13;5.07;;;;;;;;;;5027468;28;96343;-71
2022/05/31 20:29:44;;;;;;;8.45;5.63;;;;;;;;;;5028145;27;95891;-73
2022/05/31 20:32:10;;;;;;;7.93;5.03;;;;;;;;;;5026655;28;97915;-72
2022/05/31 20:34:37;;;;;;;8.40;5.70;;;;;;;;;;5013598;28;95353;-72
2022/05/31 20:37:03;;;;;;;8.35;4.88;;;;;;;;;;5011388;28;96844;-74
2022/05/31 20:39:31;;;;;;;8.13;4.88;;;;;;;;;;5013549;28;96314;-72
2022/05/31 20:42:00;;;;;;;7.45;5.03;;;;;;;;;;5011003;28;95635;-71
2022/05/31 20:44:28;;;;;;;9.55;5.55;;;;;;;;;;5005903;28;96716;-72
2022/05/31 20:46:55;;;;;;;8.05;5.43;;;;;;;;;;5011709;28;97352;-69
2022/05/31 20:49:22;;;;;;;8.43;5.22;;;;;;;;;;5010962;28;95257;-72
2022/05/31 20:51:49;;;;;;;7.25;5.13;;;;;;;;;;5017906;28;97556;-71
2022/05/31 20:54:20;;;;;;;8.30;4.78;;;;;;;;;;5012650;28;95436;-71
2022/05/31 20:56:47;;;;;;;8.18;5.25;;;;;;;;;;5013345;28;96747;-70
2022/05/31 20:59:15;;;;;;;6.68;4.68;;;;;;;;;;5012765;28;97401;-76
2022/05/31 21:01:41;;;;;;;8.95;5.25;;;;;;;;;;5013446;28;95317;-73
2022/05/31 21:04:08;;;;;;;7.65;4.70;;;;;;;;;;5013175;28;97046;-72
2022/05/31 21:06:36;;;;;;;6.60;4.63;;;;;;;;;;5014525;28;97359;-71
2022/05/31 21:09:03;;;;;;;7.70;4.82;;;;;;;;;;5011189;28;96493;-69
2022/05/31 21:11:30;;;;;;;7.85;5.22;;;;;;;;;;5015250;28;97954;-71
2022/05/31 21:13:57;;;;;;;6.38;4.60;;;;;;;;;;5015117;28;95232;-73
2022/05/31 21:16:23;;;;;;;6.53;4.60;;;;;;;;;;5013022;28;96834;-73
2022/05/31 21:18:50;;;;;;;7.38;4.70;;;;;;;;;;5010579;28;96369;-71
2022/05/31 21:21:19;;;;;;;7.68;4.90;;;;;;;;;;5013107;28;95349;-70
2022/05/31 21:23:45;;;;;;;7.82;4.85;;;;;;;;;;5013059;28;96729;-71
2022/05/31 21:26:16;;;;;;;8.30;4.75;;;;;;;;;;5013681;28;96316;-71
2022/05/31 21:28:42;;;;;;;7.60;4.90;;;;;;;;;;5004887;28;95324;-71
2022/05/31 21:31:10;;;;;;;7.40;4.50;;;;;;;;;;5002798;28;97097;-72
2022/05/31 21:33:37;;;;;;;7.07;4.78;;;;;;;;;;5014508;28;95408;-71
2022/05/31 21:36:05;;;;;;;11.60;5.18;;;;;;;;;;5014285;28;98646;-71
2022/05/31 21:38:32;;;;;;;9.18;5.10;;;;;;;;;;5012913;28;97806;-72
2022/05/31 21:41:10;;;;;;;7.00;4.88;;;;;;;;;;5013359;28;95052;-72
2022/05/31 21:43:40;;;;;;;8.73;4.82;;;;;;;;;;5013717;28;95841;-71
2022/05/31 21:46:10;;;;;;;9.27;5.32;;;;;;;;;;5012795;28;97636;-71
2022/05/31 21:48:37;;;;;;;7.97;4.88;;;;;;;;;;5011952;28;97050;-71
2022/05/31 21:51:06;;;;;;;10.40;5.38;;;;;;;;;;5012852;28;96734;-70
2022/05/31 21:53:42;;;;;;;8.85;5.78;;;;;;;;;;5015785;28;97052;-71
2022/05/31 21:56:10;;;;;;;8.95;5.65;;;;;;;;;;5014643;28;97672;-71
2022/05/31 21:58:37;;;;;;;9.68;5.88;;;;;;;;;;5012330;28;96922;-71
2022/05/31 22:01:06;;;;;;;9.60;6.90;;;;;;;;;;5013121;28;95340;-71
2022/05/31 22:03:32;;;;;;;9.73;6.35;;;;;;;;;;5013898;28;97013;-71
2022/05/31 22:06:00;;;;;;;9.63;6.35;;;;;;;;;;5013092;28;96281;-73
2022/05/31 22:08:28;;;;;;;8.90;6.07;;;;;;;;;;5004510;28;95357;-74
2022/05/31 22:10:54;;;;;;;7.75;5.80;;;;;;;;;;5011634;28;95638;-75
2022/05/31 22:13:20;;;;;;;10.90;6.53;;;;;;;;;;5013149;28;97322;-73
2022/05/31 22:15:47;;;;;;;10.93;7.03;;;;;;;;;;5016511;28;95323;-72
2022/05/31 22:18:14;;;;;;;10.63;6.32;;;;;;;;;;5013447;28;99274;-71
2022/05/31 22:20:40;;;;;;;9.18;6.45;;;;;;;;;;5009534;28;95673;-71
2022/05/31 22:23:07;;;;;;;11.20;6.57;;;;;;;;;;5014264;28;97086;-72
2022/05/31 22:25:33;;;;;;;10.48;6.75;;;;;;;;;;4995343;28;97320;-71
2022/05/31 22:28:00;;;;;;;9.73;6.60;;;;;;;;;;5009956;28;95192;-71
2022/05/31 22:30:29;;;;;;;10.82;7.10;;;;;;;;;;5001875;28;95749;-72
2022/05/31 22:32:55;;;;;;;10.27;7.07;;;;;;;;;;4992701;28;97662;-74
2022/05/31 22:35:21;;;;;;;9.93;6.68;;;;;;;;;;4993475;28;95181;-71
2022/05/31 22:37:49;;;;;;;10.25;7.13;;;;;;;;;;5010763;28;95788;-72
2022/05/31 22:40:19;;;;;;;12.93;7.63;;;;;;;;;;5012793;28;95242;-71
2022/05/31 22:42:47;;;;;;;11.38;7.28;;;;;;;;;;5013145;28;96680;-73
2022/05/31 22:45:15;;;;;;;11.25;7.88;;;;;;;;;;5013208;28;97391;-71
2022/05/31 22:47:44;;;;;;;13.00;7.68;;;;;;;;;;5009284;28;95333;-71
2022/05/31 22:50:12;;;;;;;13.63;7.85;;;;;;;;;;5012822;28;95091;-72
2022/05/31 22:52:38;;;;;;;16.17;8.57;;;;;;;;;;5011835;28;96354;-71
2022/05/31 22:55:05;;;;;;;12.45;8.48;;;;;;;;;;5011463;28;96909;-71
2022/05/31 22:57:32;;;;;;;12.27;8.23;;;;;;;;;;5011515;28;96723;-72
2022/05/31 23:00:00;;;;;;;13.40;9.35;;;;;;;;;;5015858;28;96322;-71
2022/05/31 23:02:26;;;;;;;13.75;9.25;;;;;;;;;;5012170;28;96821;-70
2022/05/31 23:04:53;;;;;;;12.40;8.10;;;;;;;;;;5011580;28;97405;-71
2022/05/31 23:07:19;;;;;;;11.88;8.40;;;;;;;;;;5006490;28;95344;-72
2022/05/31 23:09:46;;;;;;;14.20;8.80;;;;;;;;;;5002614;28;96975;-72
2022/05/31 23:12:12;;;;;;;15.07;8.68;;;;;;;;;;5012938;28;97425;-72
2022/05/31 23:14:38;;;;;;;14.48;9.10;;;;;;;;;;5012756;28;95111;-71
2022/05/31 23:17:05;;;;;;;13.88;8.82;;;;;;;;;;5007872;28;96586;-72
2022/05/31 23:19:31;;;;;;;16.05;9.77;;;;;;;;;;5012187;28;97213;-74
2022/05/31 23:24:45;;;;;;;13.88;9.05;;;;;;;;;;5006554;28;97441;-72
2022/05/31 23:27:14;;;;;;;14.48;9.27;;;;;;;;;;5004403;28;95379;-72
2022/05/31 23:29:41;;;;;;;14.57;9.27;;;;;;;;;;5010907;28;95765;-76
2022/05/31 23:32:08;;;;;;;14.23;9.00;;;;;;;;;;5010934;28;97324;-76
2022/05/31 23:34:38;;;;;;;14.30;9.80;;;;;;;;;;5011070;28;96892;-76
2022/05/31 23:37:05;;;;;;;14.82;9.30;;;;;;;;;;5010364;28;96834;-76
2022/05/31 23:39:31;;;;;;;13.55;9.23;;;;;;;;;;5010667;28;97434;-71
2022/05/31 23:41:58;;;;;;;14.38;9.20;;;;;;;;;;5012899;28;95429;-71
2022/05/31 23:44:25;;;;;;;16.33;10.05;;;;;;;;;;5009345;28;96296;-76
2022/05/31 23:46:52;;;;;;;14.07;9.27;;;;;;;;;;5012037;28;95314;-76
2022/05/31 23:49:19;;;;;;;13.05;9.18;;;;;;;;;;5011358;28;95783;-76
2022/05/31 23:51:45;;;;;;;15.10;9.77;;;;;;;;;;5010037;28;96535;-76
2022/05/31 23:54:11;;;;;;;18.50;10.43;;;;;;;;;;5009505;28;95833;-75
2022/05/31 23:56:38;;;;;;;17.23;10.32;;;;;;;;;;5011661;28;97158;-75
2022/05/31 23:59:06;;;;;;;17.40;10.75;;;;;;;;;;5011269;28;97293;-77
